createdAt,value
2019-05-06T00:01:39.847Z,14.87
2019-05-06T00:04:10.539Z,18.43
2019-05-06T00:06:41.337Z,16.00
2019-05-06T00:09:14.593Z,15.20
2019-05-06T00:11:45.051Z,12.07
2019-05-06T00:14:16.220Z,12.83
2019-05-06T00:16:47.238Z,14.73
2019-05-06T00:19:18.060Z,12.67
2019-05-06T00:21:48.861Z,14.73
2019-05-06T00:24:19.552Z,12.63
2019-05-06T00:26:57.932Z,16.97
2019-05-06T00:29:29.659Z,13.43
2019-05-06T00:32:00.285Z,14.70
2019-05-06T00:34:34.094Z,15.57
2019-05-06T00:37:05.124Z,13.57
2019-05-06T00:39:46.683Z,15.00
2019-05-06T00:42:34.777Z,16.37
2019-05-06T00:45:07.865Z,16.67
2019-05-06T00:47:38.508Z,16.43
2019-05-06T00:50:09.632Z,18.93
2019-05-06T00:52:40.459Z,18.23
2019-05-06T00:55:13.577Z,17.00
2019-05-06T00:57:44.063Z,11.57
2019-05-06T01:00:18.918Z,17.40
2019-05-06T01:02:49.714Z,13.23
2019-05-06T01:05:24.453Z,13.50
2019-05-06T01:07:55.544Z,16.07
2019-05-06T01:10:26.142Z,11.47
2019-05-06T01:12:58.450Z,14.70
2019-05-06T01:15:30.255Z,12.67
2019-05-06T01:18:01.210Z,14.10
2019-05-06T01:20:33.946Z,13.30
2019-05-06T01:23:04.813Z,13.90
2019-05-06T01:25:35.539Z,13.30
2019-05-06T01:28:07.133Z,13.50
2019-05-06T01:30:38.047Z,15.90
2019-05-06T01:33:08.641Z,15.73
2019-05-06T01:35:40.953Z,17.83
2019-05-06T01:38:24.222Z,12.37
2019-05-06T01:40:56.408Z,16.23
2019-05-06T01:43:28.765Z,14.50
2019-05-06T01:45:59.506Z,14.00
2019-05-06T01:48:48.831Z,14.50
2019-05-06T01:51:21.271Z,12.53
2019-05-06T01:53:54.311Z,11.70
2019-05-06T01:56:24.340Z,11.73
2019-05-06T01:58:54.991Z,13.30
2019-05-06T02:01:25.674Z,12.43
2019-05-06T02:03:56.428Z,16.37
2019-05-06T02:06:27.238Z,15.17
2019-05-06T02:08:57.943Z,12.80
2019-05-06T02:11:28.633Z,11.97
2019-05-06T02:13:59.215Z,12.03
2019-05-06T02:16:29.983Z,13.10
2019-05-06T02:19:00.718Z,12.20
2019-05-06T02:21:33.669Z,13.97
2019-05-06T02:24:10.087Z,14.23
2019-05-06T02:26:43.665Z,11.23
2019-05-06T02:29:21.969Z,15.67
2019-05-06T02:32:15.940Z,13.03
2019-05-06T02:34:36.537Z,16.07
2019-05-06T02:37:11.300Z,13.13
2019-05-06T02:39:43.817Z,13.37
2019-05-06T02:42:14.997Z,14.10
2019-05-06T02:44:46.494Z,13.20
2019-05-06T02:47:37.023Z,13.63
2019-05-06T02:50:15.805Z,12.93
2019-05-06T02:52:46.496Z,15.10
2019-05-06T02:55:17.243Z,13.30
2019-05-06T02:57:47.872Z,16.10
2019-05-06T03:00:20.050Z,13.37
2019-05-06T03:02:53.850Z,13.20
2019-05-06T03:05:23.841Z,12.07
2019-05-06T03:07:57.681Z,13.07
2019-05-06T03:10:27.124Z,13.10
2019-05-06T03:12:57.817Z,13.63
2019-05-06T03:15:28.731Z,13.17
2019-05-06T03:17:59.595Z,10.67
2019-05-06T03:20:49.275Z,15.13
2019-05-06T03:23:24.157Z,13.73
2019-05-06T03:25:54.743Z,14.60
2019-05-06T03:28:25.741Z,12.27
2019-05-06T03:30:57.243Z,13.13
2019-05-06T03:33:47.793Z,14.37
2019-05-06T03:36:15.730Z,13.57
2019-05-06T03:38:33.743Z,12.77
2019-05-06T03:41:04.957Z,12.87
2019-05-06T03:43:36.043Z,15.03
2019-05-06T03:46:14.025Z,13.70
2019-05-06T03:49:04.044Z,13.37
2019-05-06T03:51:34.710Z,10.90
2019-05-06T03:54:05.759Z,16.40
2019-05-06T03:56:38.262Z,15.07
2019-05-06T03:59:10.003Z,12.97
2019-05-06T04:01:43.009Z,13.40
2019-05-06T04:04:13.470Z,13.53
2019-05-06T04:06:44.730Z,11.93
2019-05-06T04:09:16.197Z,11.87
2019-05-06T04:11:47.154Z,12.53
2019-05-06T04:14:18.798Z,11.10
2019-05-06T04:16:53.972Z,14.37
2019-05-06T04:19:43.724Z,11.83
2019-05-06T04:22:16.160Z,12.20
2019-05-06T04:24:49.272Z,14.97
2019-05-06T04:27:26.956Z,14.53
2019-05-06T04:29:57.771Z,9.80
2019-05-06T04:32:28.663Z,9.87
2019-05-06T04:35:04.090Z,12.03
2019-05-06T04:37:34.093Z,11.63
2019-05-06T04:40:06.517Z,13.13
2019-05-06T04:42:38.683Z,10.17
2019-05-06T04:45:09.445Z,11.90
2019-05-06T04:47:43.364Z,11.30
2019-05-06T04:50:14.444Z,14.47
2019-05-06T04:52:48.119Z,10.13
2019-05-06T04:55:19.017Z,12.83
2019-05-06T04:57:49.645Z,12.30
2019-05-06T05:00:23.258Z,9.13
2019-05-06T05:02:55.003Z,12.93
2019-05-06T05:05:25.887Z,13.07
2019-05-06T05:07:56.822Z,13.07
2019-05-06T05:10:35.541Z,13.27
2019-05-06T05:13:12.567Z,11.87
2019-05-06T05:16:03.471Z,11.90
2019-05-06T05:18:42.384Z,10.20
2019-05-06T05:21:12.584Z,13.73
2019-05-06T05:23:43.775Z,12.43
2019-05-06T05:26:14.794Z,13.80
2019-05-06T05:28:45.504Z,15.00
2019-05-06T05:31:18.305Z,16.37
2019-05-06T05:33:49.230Z,15.17
2019-05-06T05:36:20.728Z,17.23
2019-05-06T05:38:52.244Z,15.47
2019-05-06T05:41:24.622Z,16.90
2019-05-06T05:43:57.197Z,15.13
2019-05-06T05:46:28.053Z,14.30
2019-05-06T05:49:02.757Z,10.83
2019-05-06T05:51:33.637Z,14.67
2019-05-06T05:54:04.971Z,12.63
2019-05-06T05:56:35.777Z,14.57
2019-05-06T05:59:07.027Z,11.97
2019-05-06T06:01:37.937Z,11.10
2019-05-06T06:04:08.665Z,13.73
2019-05-06T06:06:42.235Z,14.03
2019-05-06T06:09:12.798Z,11.93
2019-05-06T06:11:48.652Z,11.60
2019-05-06T06:14:30.152Z,12.73
2019-05-06T06:17:19.027Z,9.00
2019-05-06T06:19:54.710Z,15.00
2019-05-06T06:22:27.384Z,12.67
2019-05-06T06:24:59.189Z,11.17
2019-05-06T06:27:33.233Z,10.47
2019-05-06T06:30:06.719Z,12.77
2019-05-06T06:32:38.064Z,14.43
2019-05-06T06:35:14.534Z,10.87
2019-05-06T06:38:02.708Z,8.73
2019-05-06T06:40:33.541Z,10.20
2019-05-06T06:43:06.405Z,10.27
2019-05-06T06:45:37.625Z,9.83
2019-05-06T06:48:09.356Z,9.23
2019-05-06T06:50:40.167Z,6.93
2019-05-06T06:53:12.662Z,7.67
2019-05-06T06:55:44.307Z,6.63
2019-05-06T06:58:17.263Z,8.57
2019-05-06T07:01:03.833Z,6.10
2019-05-06T07:03:38.200Z,7.13
2019-05-06T07:06:14.356Z,8.57
2019-05-06T07:08:45.282Z,6.37
2019-05-06T07:11:17.450Z,4.90
2019-05-06T07:13:53.985Z,6.87
2019-05-06T07:16:25.301Z,7.47
2019-05-06T07:18:57.335Z,9.97
2019-05-06T07:21:39.406Z,8.03
2019-05-06T07:24:12.971Z,7.97
2019-05-06T07:26:44.945Z,8.83
2019-05-06T07:29:23.469Z,7.23
2019-05-06T07:31:50.463Z,8.60
2019-05-06T07:34:22.872Z,7.20
2019-05-06T07:36:53.844Z,6.97
2019-05-06T07:39:25.218Z,6.03
2019-05-06T07:42:02.329Z,7.40
2019-05-06T07:44:52.940Z,7.13
2019-05-06T07:47:37.507Z,4.90
2019-05-06T07:50:08.648Z,6.50
2019-05-06T07:52:39.486Z,5.47
2019-05-06T07:55:12.021Z,6.20
2019-05-06T07:57:42.935Z,5.80
2019-05-06T08:00:14.480Z,7.30
2019-05-06T08:02:45.714Z,4.72
2019-05-06T08:05:17.656Z,4.55
2019-05-06T08:07:48.697Z,4.28
2019-05-06T08:10:21.926Z,4.53
2019-05-06T08:12:52.732Z,4.72
2019-05-06T08:15:25.874Z,3.58
2019-05-06T08:17:56.649Z,4.47
2019-05-06T08:20:39.620Z,7.60
2019-05-06T08:23:19.132Z,4.12
2019-05-06T08:25:57.688Z,4.72
2019-05-06T08:28:37.409Z,5.30
2019-05-06T08:30:57.598Z,6.67
2019-05-06T08:33:28.605Z,3.85
2019-05-06T08:36:11.704Z,6.08
2019-05-06T08:38:53.194Z,4.72
2019-05-06T08:41:26.864Z,5.47
2019-05-06T08:43:58.065Z,3.72
2019-05-06T08:46:29.265Z,6.62
2019-05-06T08:49:02.847Z,3.95
2019-05-06T08:51:44.179Z,3.05
2019-05-06T08:54:22.928Z,5.28
2019-05-06T08:56:53.870Z,5.75
2019-05-06T08:59:24.736Z,8.25
2019-05-06T09:02:03.234Z,7.22
2019-05-06T09:04:34.395Z,6.75
2019-05-06T09:07:06.857Z,8.63
2019-05-06T09:09:39.105Z,11.50
2019-05-06T09:12:13.029Z,10.15
2019-05-06T09:14:44.260Z,8.23
2019-05-06T09:17:15.061Z,7.22
2019-05-06T09:19:46.118Z,5.92
2019-05-06T09:22:17.400Z,8.75
2019-05-06T09:24:48.059Z,6.60
2019-05-06T09:27:22.495Z,5.70
2019-05-06T09:29:54.337Z,3.63
2019-05-06T09:32:28.133Z,3.93
2019-05-06T09:34:58.823Z,8.27
2019-05-06T09:37:29.642Z,4.47
2019-05-06T09:40:02.784Z,3.27
2019-05-06T09:42:35.768Z,4.00
2019-05-06T09:45:08.693Z,4.63
2019-05-06T09:47:44.096Z,8.70
2019-05-06T09:50:19.069Z,4.97
2019-05-06T09:52:49.777Z,5.77
2019-05-06T09:55:24.975Z,4.77
2019-05-06T09:57:57.501Z,4.90
2019-05-06T10:00:32.750Z,3.90
2019-05-06T10:03:03.840Z,4.43
2019-05-06T10:05:34.727Z,4.03
2019-05-06T10:08:05.557Z,5.53
2019-05-06T10:10:36.290Z,6.20
2019-05-06T10:13:06.918Z,8.10
2019-05-06T10:15:37.825Z,5.90
2019-05-06T10:18:12.649Z,6.10
2019-05-06T10:20:44.992Z,6.80
2019-05-06T10:23:16.721Z,5.47
2019-05-06T10:25:47.625Z,8.97
2019-05-06T10:28:33.659Z,7.90
2019-05-06T10:31:07.218Z,7.03
2019-05-06T10:33:39.562Z,6.70
2019-05-06T10:36:12.883Z,8.40
2019-05-06T10:38:55.116Z,8.67
2019-05-06T10:41:35.165Z,8.57
2019-05-06T10:44:11.879Z,6.07
2019-05-06T10:46:43.137Z,7.40
2019-05-06T10:49:15.728Z,7.00
2019-05-06T10:51:48.669Z,7.63
2019-05-06T10:54:22.909Z,7.70
2019-05-06T10:57:07.951Z,5.27
2019-05-06T10:59:42.800Z,5.53
2019-05-06T11:02:20.544Z,6.10
2019-05-06T11:04:52.939Z,7.03
